GLD166 SSPS-SSGY
Flight info
| Callsign | GLD166 |
|---|---|
| Flight time | N/A |
| Altitude | 6500 |
| Route | 2619S05210W 2610S05221W 2559S05234W 2549S05244W 2544S05255W 2534S05304W 2524S05311W 2512S05322W 2459S05329W 2441S05344W 2420S05351W |
| Aircraft | C182/M-SDFGIRY/S |
Departure
| Time | 2026-05-06 15:05 |
|---|---|
| Airport | Palmas Airport (SSPS) |
Arrival
| Time | N/A |
|---|---|
| Airport | Guaíra Airport (SSGY) |
| Time | Latitude | Longitude | Altitude | Speed | Heading |
|---|---|---|---|---|---|
| 2026-05-06 14:44 | -26.47337 | -51.97655 | 3616 ft | 0 kts | 284° |
| 2026-05-06 14:46 | -26.47334 | -51.97669 | 3613 ft | 5 kts | 286° |
| 2026-05-06 14:46 | -26.47329 | -51.97683 | 3612 ft | 0 kts | 294° |
| 2026-05-06 14:47 | -26.47328 | -51.97684 | 3612 ft | 2 kts | 330° |
| 2026-05-06 14:47 | -26.47331 | -51.97663 | 3613 ft | 0 kts | 110° |
| 2026-05-06 15:02 | -26.47337 | -51.97636 | 3612 ft | 6 kts | 109° |
| 2026-05-06 15:02 | -26.47338 | -51.97633 | 3612 ft | 0 kts | 111° |
| 2026-05-06 15:03 | -26.47348 | -51.97588 | 3618 ft | 12 kts | 100° |
| 2026-05-06 15:03 | -26.47435 | -51.97597 | 3618 ft | 21 kts | 189° |
| 2026-05-06 15:03 | -26.47561 | -51.97620 | 3616 ft | 7 kts | 35° |
| 2026-05-06 15:04 | -26.47422 | -51.97578 | 3619 ft | 40 kts | 12° |
| 2026-05-06 15:04 | -26.47021 | -51.97469 | 3614 ft | 77 kts | 14° |
| 2026-05-06 15:04 | -26.46472 | -51.97329 | 3834 ft | 79 kts | 6° |
| 2026-05-06 15:04 | -26.45879 | -51.97492 | 3938 ft | 112 kts | 329° |
| 2026-05-06 15:05 | -26.45558 | -51.98376 | 4006 ft | 135 kts | 282° |
| 2026-05-06 15:05 | -26.45192 | -51.99299 | 4094 ft | 130 kts | 313° |
| 2026-05-06 15:05 | -26.44638 | -52.00094 | 4211 ft | 130 kts | 311° |
| 2026-05-06 15:05 | -26.44084 | -52.00906 | 4373 ft | 133 kts | 312° |
| 2026-05-06 15:06 | -26.43512 | -52.01707 | 4548 ft | 133 kts | 312° |
| 2026-05-06 15:06 | -26.42944 | -52.02533 | 4728 ft | 133 kts | 311° |
| 2026-05-06 15:06 | -26.42399 | -52.03361 | 4906 ft | 131 kts | 311° |
| 2026-05-06 15:06 | -26.41870 | -52.04168 | 5108 ft | 128 kts | 312° |
| 2026-05-06 15:07 | -26.41327 | -52.04971 | 5270 ft | 129 kts | 311° |
| 2026-05-06 15:07 | -26.40754 | -52.05789 | 5421 ft | 134 kts | 312° |
| 2026-05-06 15:07 | -26.40210 | -52.06610 | 5631 ft | 131 kts | 312° |
| 2026-05-06 15:07 | -26.39664 | -52.07432 | 5770 ft | 130 kts | 312° |
| 2026-05-06 15:08 | -26.39101 | -52.08268 | 5942 ft | 139 kts | 311° |
| 2026-05-06 15:08 | -26.38534 | -52.09107 | 6076 ft | 129 kts | 311° |
| 2026-05-06 15:08 | -26.38014 | -52.09886 | 6270 ft | 124 kts | 311° |
| 2026-05-06 15:08 | -26.37483 | -52.10681 | 6431 ft | 129 kts | 311° |
| 2026-05-06 15:09 | -26.36933 | -52.11494 | 6483 ft | 134 kts | 311° |
| 2026-05-06 15:09 | -26.36359 | -52.12335 | 6511 ft | 142 kts | 311° |
| 2026-05-06 15:09 | -26.35735 | -52.13238 | 6516 ft | 151 kts | 311° |
| 2026-05-06 15:09 | -26.35105 | -52.14146 | 6530 ft | 149 kts | 311° |
| 2026-05-06 15:10 | -26.34447 | -52.15088 | 6517 ft | 156 kts | 312° |
| 2026-05-06 15:10 | -26.33802 | -52.16030 | 6509 ft | 150 kts | 311° |
| 2026-05-06 15:10 | -26.33174 | -52.16938 | 6511 ft | 146 kts | 311° |
| 2026-05-06 15:10 | -26.32566 | -52.17823 | 6507 ft | 141 kts | 311° |
| 2026-05-06 15:11 | -26.31970 | -52.18692 | 6493 ft | 139 kts | 311° |
| 2026-05-06 15:11 | -26.31389 | -52.19543 | 6479 ft | 136 kts | 311° |
| 2026-05-06 15:11 | -26.30822 | -52.20384 | 6518 ft | 138 kts | 310° |
| 2026-05-06 15:11 | -26.30234 | -52.21258 | 6492 ft | 141 kts | 312° |
| 2026-05-06 15:12 | -26.29650 | -52.22125 | 6487 ft | 139 kts | 311° |
| 2026-05-06 15:12 | -26.29069 | -52.22987 | 6485 ft | 138 kts | 313° |
| 2026-05-06 15:12 | -26.28425 | -52.23795 | 6503 ft | 142 kts | 316° |
| 2026-05-06 15:12 | -26.27757 | -52.24626 | 6495 ft | 146 kts | 316° |
| 2026-05-06 15:13 | -26.27077 | -52.25473 | 6496 ft | 149 kts | 315° |
| 2026-05-06 15:13 | -26.26389 | -52.26323 | 6514 ft | 149 kts | 315° |
| 2026-05-06 15:13 | -26.25684 | -52.27175 | 6495 ft | 147 kts | 316° |
| 2026-05-06 15:13 | -26.24989 | -52.28003 | 6507 ft | 147 kts | 316° |
| 2026-05-06 15:14 | -26.24299 | -52.28833 | 6497 ft | 145 kts | 316° |
| 2026-05-06 15:14 | -26.23616 | -52.29663 | 6496 ft | 147 kts | 316° |
| 2026-05-06 15:14 | -26.22918 | -52.30492 | 6515 ft | 149 kts | 317° |
| 2026-05-06 15:14 | -26.22209 | -52.31317 | 6492 ft | 145 kts | 316° |
| 2026-05-06 15:15 | -26.21524 | -52.32132 | 6513 ft | 146 kts | 316° |
| 2026-05-06 15:15 | -26.20836 | -52.32958 | 6487 ft | 143 kts | 315° |
| 2026-05-06 15:15 | -26.20161 | -52.33753 | 6496 ft | 145 kts | 316° |
| 2026-05-06 15:15 | -26.19479 | -52.34564 | 6490 ft | 141 kts | 316° |
| 2026-05-06 15:16 | -26.18811 | -52.35376 | 6481 ft | 143 kts | 316° |
| 2026-05-06 15:16 | -26.18144 | -52.36191 | 6502 ft | 142 kts | 316° |
| 2026-05-06 15:16 | -26.17471 | -52.37017 | 6485 ft | 144 kts | 316° |
| 2026-05-06 15:16 | -26.16809 | -52.37835 | 6500 ft | 141 kts | 316° |
| 2026-05-06 15:17 | -26.16147 | -52.38656 | 6482 ft | 142 kts | 315° |
| 2026-05-06 15:17 | -26.15476 | -52.39477 | 6492 ft | 143 kts | 316° |
| 2026-05-06 15:17 | -26.14805 | -52.40308 | 6498 ft | 145 kts | 315° |
| 2026-05-06 15:17 | -26.14123 | -52.41149 | 6498 ft | 148 kts | 316° |
| 2026-05-06 15:18 | -26.13441 | -52.41983 | 6490 ft | 145 kts | 315° |
| 2026-05-06 15:18 | -26.12771 | -52.42806 | 6488 ft | 142 kts | 315° |
| 2026-05-06 15:18 | -26.12107 | -52.43615 | 6495 ft | 143 kts | 316° |
| 2026-05-06 15:18 | -26.11437 | -52.44431 | 6487 ft | 142 kts | 315° |
| 2026-05-06 15:19 | -26.10761 | -52.45260 | 6490 ft | 145 kts | 315° |
| 2026-05-06 15:19 | -26.10075 | -52.46090 | 6500 ft | 147 kts | 316° |
| 2026-05-06 15:19 | -26.09382 | -52.46921 | 6481 ft | 145 kts | 316° |
| 2026-05-06 15:19 | -26.08710 | -52.47753 | 6499 ft | 145 kts | 315° |
| 2026-05-06 15:20 | -26.08034 | -52.48587 | 6472 ft | 144 kts | 315° |
| 2026-05-06 15:20 | -26.07377 | -52.49409 | 6480 ft | 142 kts | 315° |
| 2026-05-06 15:20 | -26.06727 | -52.50230 | 6480 ft | 142 kts | 316° |
| 2026-05-06 15:20 | -26.06076 | -52.51059 | 6493 ft | 144 kts | 315° |
| 2026-05-06 15:21 | -26.05404 | -52.51906 | 6466 ft | 145 kts | 316° |
| 2026-05-06 15:21 | -26.04743 | -52.52745 | 6490 ft | 145 kts | 315° |
| 2026-05-06 15:21 | -26.04065 | -52.53592 | 6494 ft | 148 kts | 315° |
| 2026-05-06 15:21 | -26.03382 | -52.54447 | 6479 ft | 149 kts | 315° |
| 2026-05-06 15:22 | -26.02703 | -52.55293 | 6495 ft | 147 kts | 315° |
| 2026-05-06 15:22 | -26.02015 | -52.56145 | 6478 ft | 148 kts | 315° |
| 2026-05-06 15:22 | -26.01332 | -52.56990 | 6492 ft | 146 kts | 315° |
| 2026-05-06 15:22 | -26.00650 | -52.57837 | 6496 ft | 148 kts | 315° |
| 2026-05-06 15:23 | -25.99969 | -52.58689 | 6480 ft | 144 kts | 315° |
| 2026-05-06 15:23 | -25.99312 | -52.59516 | 6474 ft | 141 kts | 315° |
| 2026-05-06 15:23 | -25.98662 | -52.60342 | 6483 ft | 144 kts | 315° |
| 2026-05-06 15:23 | -25.97994 | -52.61179 | 6483 ft | 145 kts | 315° |
| 2026-05-06 15:24 | -25.97329 | -52.62015 | 6479 ft | 144 kts | 315° |
| 2026-05-06 15:24 | -25.96658 | -52.62857 | 6487 ft | 148 kts | 315° |
| 2026-05-06 15:24 | -25.95978 | -52.63722 | 6477 ft | 148 kts | 315° |
| 2026-05-06 15:24 | -25.95300 | -52.64590 | 6488 ft | 150 kts | 315° |
| 2026-05-06 15:25 | -25.94617 | -52.65456 | 6478 ft | 148 kts | 315° |
| 2026-05-06 15:25 | -25.93953 | -52.66296 | 6478 ft | 146 kts | 315° |
| 2026-05-06 15:25 | -25.93294 | -52.67160 | 6485 ft | 147 kts | 314° |
| 2026-05-06 15:25 | -25.92636 | -52.68019 | 6491 ft | 144 kts | 315° |
| 2026-05-06 15:26 | -25.91975 | -52.68869 | 6471 ft | 144 kts | 315° |
| 2026-05-06 15:26 | -25.91328 | -52.69706 | 6471 ft | 141 kts | 315° |
| 2026-05-06 15:26 | -25.90691 | -52.70537 | 6465 ft | 140 kts | 315° |
| 2026-05-06 15:26 | -25.90271 | -52.71080 | 6471 ft | 140 kts | 315° |
| 2026-05-06 15:27 | -25.89639 | -52.71896 | 6466 ft | 140 kts | 315° |
| 2026-05-06 15:27 | -25.89003 | -52.72719 | 6473 ft | 143 kts | 315° |
| 2026-05-06 15:27 | -25.88355 | -52.73560 | 6475 ft | 145 kts | 315° |
| 2026-05-06 15:27 | -25.87700 | -52.74407 | 6489 ft | 145 kts | 315° |
| 2026-05-06 15:28 | -25.87029 | -52.75272 | 6469 ft | 148 kts | 315° |
| 2026-05-06 15:28 | -25.86357 | -52.76135 | 6468 ft | 146 kts | 315° |
| 2026-05-06 15:28 | -25.85964 | -52.77185 | 6446 ft | 154 kts | 287° |
| 2026-05-06 15:28 | -25.85786 | -52.78357 | 6444 ft | 153 kts | 287° |
| 2026-05-06 15:29 | -25.85605 | -52.79523 | 6457 ft | 155 kts | 287° |
| 2026-05-06 15:29 | -25.85429 | -52.80708 | 6450 ft | 155 kts | 286° |
| 2026-05-06 15:29 | -25.85249 | -52.81876 | 6451 ft | 153 kts | 286° |
| 2026-05-06 15:29 | -25.85066 | -52.83034 | 6448 ft | 151 kts | 287° |
| 2026-05-06 15:30 | -25.84874 | -52.84191 | 6439 ft | 152 kts | 287° |
| 2026-05-06 15:30 | -25.84690 | -52.85330 | 6451 ft | 151 kts | 287° |
| 2026-05-06 15:30 | -25.84507 | -52.86499 | 6441 ft | 154 kts | 287° |
| 2026-05-06 15:30 | -25.84323 | -52.87656 | 6442 ft | 153 kts | 287° |
| 2026-05-06 15:31 | -25.84146 | -52.88815 | 6446 ft | 152 kts | 286° |
| 2026-05-06 15:31 | -25.83970 | -52.89978 | 6451 ft | 152 kts | 286° |
| 2026-05-06 15:31 | -25.83785 | -52.91132 | 6440 ft | 151 kts | 287° |
| 2026-05-06 15:32 | -25.83448 | -52.93438 | 6441 ft | 150 kts | 286° |
| 2026-05-06 15:32 | -25.83279 | -52.94581 | 6436 ft | 149 kts | 287° |
| 2026-05-06 15:32 | -25.83114 | -52.95717 | 6450 ft | 150 kts | 286° |
| 2026-05-06 15:32 | -25.82945 | -52.96852 | 6440 ft | 151 kts | 287° |
| 2026-05-06 15:33 | -25.82775 | -52.98013 | 6442 ft | 154 kts | 287° |
| 2026-05-06 15:33 | -25.82598 | -52.99192 | 6441 ft | 155 kts | 286° |
| 2026-05-06 15:33 | -25.82419 | -53.00360 | 6438 ft | 153 kts | 286° |
| 2026-05-06 15:33 | -25.82239 | -53.01520 | 6440 ft | 151 kts | 287° |
| 2026-05-06 15:34 | -25.82061 | -53.02658 | 6438 ft | 150 kts | 286° |
| 2026-05-06 15:34 | -25.81892 | -53.03807 | 6432 ft | 152 kts | 287° |
| 2026-05-06 15:34 | -25.81735 | -53.04961 | 6442 ft | 152 kts | 286° |
| 2026-05-06 15:34 | -25.81580 | -53.06127 | 6447 ft | 153 kts | 287° |
| 2026-05-06 15:35 | -25.81419 | -53.07307 | 6436 ft | 154 kts | 286° |
| 2026-05-06 15:35 | -25.81269 | -53.08471 | 6432 ft | 151 kts | 286° |
| 2026-05-06 15:35 | -25.81103 | -53.09614 | 6440 ft | 154 kts | 286° |
| 2026-05-06 15:35 | -25.80925 | -53.10793 | 6446 ft | 156 kts | 286° |
| 2026-05-06 15:36 | -25.80630 | -53.11913 | 6421 ft | 149 kts | 306° |
| 2026-05-06 15:36 | -25.79989 | -53.12801 | 6411 ft | 147 kts | 317° |
| 2026-05-06 15:36 | -25.79286 | -53.13604 | 6410 ft | 145 kts | 318° |
| 2026-05-06 15:36 | -25.78591 | -53.14406 | 6408 ft | 143 kts | 318° |
| 2026-05-06 15:37 | -25.77907 | -53.15209 | 6421 ft | 142 kts | 318° |
| 2026-05-06 15:37 | -25.77212 | -53.16013 | 6417 ft | 145 kts | 318° |
| 2026-05-06 15:37 | -25.76515 | -53.16822 | 6410 ft | 145 kts | 318° |
| 2026-05-06 15:37 | -25.75816 | -53.17632 | 6413 ft | 146 kts | 317° |
| 2026-05-06 15:38 | -25.75113 | -53.18436 | 6417 ft | 145 kts | 318° |
| 2026-05-06 15:38 | -25.74272 | -53.19039 | 6390 ft | 145 kts | 339° |
| 2026-05-06 15:38 | -25.73312 | -53.19427 | 6561 ft | 150 kts | 340° |
| 2026-05-06 15:38 | -25.72307 | -53.19822 | 6561 ft | 155 kts | 340° |
| 2026-05-06 15:39 | -25.71277 | -53.20224 | 6568 ft | 158 kts | 340° |
| 2026-05-06 15:39 | -25.70235 | -53.20631 | 6566 ft | 159 kts | 340° |
| 2026-05-06 15:39 | -25.69187 | -53.21042 | 6571 ft | 160 kts | 340° |
| 2026-05-06 15:39 | -25.68135 | -53.21455 | 6572 ft | 160 kts | 340° |
| 2026-05-06 15:40 | -25.67085 | -53.21864 | 6572 ft | 159 kts | 340° |
| 2026-05-06 15:40 | -25.66054 | -53.22272 | 6567 ft | 159 kts | 340° |
| 2026-05-06 15:40 | -25.65012 | -53.22684 | 6570 ft | 159 kts | 340° |
| 2026-05-06 15:40 | -25.63967 | -53.23097 | 6573 ft | 160 kts | 340° |
| 2026-05-06 15:41 | -25.62915 | -53.23512 | 6573 ft | 161 kts | 339° |
| 2026-05-06 15:41 | -25.61854 | -53.23933 | 6575 ft | 162 kts | 340° |
| 2026-05-06 15:41 | -25.60794 | -53.24351 | 6570 ft | 161 kts | 340° |
| 2026-05-06 15:41 | -25.59742 | -53.24767 | 6570 ft | 160 kts | 340° |
| 2026-05-06 15:42 | -25.58697 | -53.25183 | 6570 ft | 160 kts | 339° |
| 2026-05-06 15:42 | -25.57649 | -53.25597 | 6572 ft | 160 kts | 340° |
| 2026-05-06 15:42 | -25.56599 | -53.26014 | 6572 ft | 160 kts | 340° |
| 2026-05-06 15:42 | -25.55553 | -53.26431 | 6570 ft | 159 kts | 339° |
| 2026-05-06 15:43 | -25.54509 | -53.26848 | 6572 ft | 160 kts | 339° |
| 2026-05-06 15:43 | -25.53459 | -53.27265 | 6573 ft | 161 kts | 339° |
| 2026-05-06 15:43 | -25.52422 | -53.27679 | 6573 ft | 160 kts | 339° |
| 2026-05-06 15:43 | -25.51377 | -53.28096 | 6572 ft | 159 kts | 339° |
| 2026-05-06 15:44 | -25.50331 | -53.28513 | 6570 ft | 160 kts | 339° |
| 2026-05-06 15:44 | -25.49278 | -53.28936 | 6571 ft | 161 kts | 340° |
| 2026-05-06 15:44 | -25.48230 | -53.29355 | 6569 ft | 159 kts | 339° |
| 2026-05-06 15:44 | -25.47183 | -53.29777 | 6573 ft | 160 kts | 339° |
| 2026-05-06 15:45 | -25.46132 | -53.30199 | 6570 ft | 160 kts | 339° |
| 2026-05-06 15:45 | -25.45099 | -53.30613 | 6573 ft | 160 kts | 339° |
| 2026-05-06 15:45 | -25.44052 | -53.31035 | 6568 ft | 160 kts | 339° |
| 2026-05-06 15:45 | -25.43010 | -53.31455 | 6572 ft | 160 kts | 339° |
| 2026-05-06 15:46 | -25.41968 | -53.31875 | 6571 ft | 159 kts | 339° |
| 2026-05-06 15:46 | -25.40926 | -53.32295 | 6572 ft | 159 kts | 339° |
| 2026-05-06 15:46 | -25.39883 | -53.32717 | 6573 ft | 160 kts | 339° |
| 2026-05-06 15:46 | -25.38841 | -53.33140 | 6572 ft | 160 kts | 339° |
| 2026-05-06 15:47 | -25.37795 | -53.33563 | 6572 ft | 160 kts | 339° |
| 2026-05-06 15:47 | -25.36752 | -53.33986 | 6569 ft | 159 kts | 339° |
| 2026-05-06 15:47 | -25.35713 | -53.34407 | 6571 ft | 159 kts | 339° |
| 2026-05-06 15:47 | -25.34672 | -53.34830 | 6574 ft | 159 kts | 339° |
| 2026-05-06 15:48 | -25.33627 | -53.35256 | 6569 ft | 160 kts | 339° |
| 2026-05-06 15:48 | -25.32600 | -53.35676 | 6568 ft | 159 kts | 339° |
| 2026-05-06 15:48 | -25.31555 | -53.36102 | 6570 ft | 161 kts | 339° |
| 2026-05-06 15:48 | -25.30508 | -53.36529 | 6574 ft | 160 kts | 339° |
| 2026-05-06 15:49 | -25.29460 | -53.36955 | 6572 ft | 161 kts | 339° |
| 2026-05-06 15:49 | -25.28412 | -53.37384 | 6568 ft | 160 kts | 339° |
| 2026-05-06 15:49 | -25.27367 | -53.37809 | 6568 ft | 161 kts | 339° |
| 2026-05-06 15:49 | -25.26319 | -53.38241 | 6573 ft | 161 kts | 339° |
| 2026-05-06 15:50 | -25.25268 | -53.38672 | 6573 ft | 161 kts | 339° |
| 2026-05-06 15:50 | -25.24230 | -53.39099 | 6573 ft | 161 kts | 339° |
| 2026-05-06 15:50 | -25.23179 | -53.39532 | 6573 ft | 161 kts | 339° |
| 2026-05-06 15:50 | -25.22127 | -53.39965 | 6574 ft | 161 kts | 339° |
| 2026-05-06 15:51 | -25.21079 | -53.40398 | 6572 ft | 160 kts | 339° |
| 2026-05-06 15:51 | -25.20038 | -53.40830 | 6569 ft | 159 kts | 339° |
| 2026-05-06 15:51 | -25.18995 | -53.41260 | 6569 ft | 160 kts | 339° |
| 2026-05-06 15:51 | -25.17949 | -53.41692 | 6573 ft | 160 kts | 339° |
| 2026-05-06 15:52 | -25.16907 | -53.42125 | 6574 ft | 160 kts | 339° |
| 2026-05-06 15:52 | -25.15860 | -53.42558 | 6573 ft | 160 kts | 339° |
| 2026-05-06 15:52 | -25.14817 | -53.42991 | 6571 ft | 160 kts | 339° |
| 2026-05-06 15:52 | -25.13790 | -53.43418 | 6569 ft | 159 kts | 339° |
| 2026-05-06 15:53 | -25.12752 | -53.43850 | 6570 ft | 160 kts | 339° |
| 2026-05-06 15:53 | -25.11714 | -53.44280 | 6570 ft | 160 kts | 339° |
| 2026-05-06 15:53 | -25.10677 | -53.44713 | 6575 ft | 159 kts | 339° |
| 2026-05-06 15:53 | -25.09640 | -53.45147 | 6570 ft | 160 kts | 338° |
| 2026-05-06 15:54 | -25.08593 | -53.45586 | 6571 ft | 161 kts | 339° |
| 2026-05-06 15:54 | -25.07547 | -53.46021 | 6570 ft | 160 kts | 339° |
| 2026-05-06 15:54 | -25.06507 | -53.46456 | 6575 ft | 159 kts | 338° |
| 2026-05-06 15:54 | -25.05464 | -53.46894 | 6569 ft | 160 kts | 338° |
| 2026-05-06 15:55 | -25.04427 | -53.47329 | 6569 ft | 159 kts | 338° |
| 2026-05-06 15:55 | -25.03394 | -53.47762 | 6572 ft | 159 kts | 339° |
| 2026-05-06 15:55 | -25.02355 | -53.48197 | 6568 ft | 159 kts | 338° |
| 2026-05-06 15:55 | -25.01316 | -53.48636 | 6569 ft | 159 kts | 338° |
| 2026-05-06 15:56 | -25.00287 | -53.49070 | 6574 ft | 158 kts | 338° |
| 2026-05-06 15:56 | -24.99259 | -53.49505 | 6570 ft | 158 kts | 338° |
| 2026-05-06 15:56 | -24.98231 | -53.49936 | 6570 ft | 159 kts | 338° |
| 2026-05-06 15:56 | -24.97195 | -53.50374 | 6571 ft | 160 kts | 338° |
| 2026-05-06 15:57 | -24.96167 | -53.50810 | 6574 ft | 161 kts | 338° |
| 2026-05-06 15:57 | -24.95124 | -53.51254 | 6569 ft | 159 kts | 338° |
| 2026-05-06 15:57 | -24.94090 | -53.51692 | 6571 ft | 159 kts | 338° |
| 2026-05-06 15:57 | -24.93051 | -53.52132 | 6568 ft | 160 kts | 338° |
| 2026-05-06 15:58 | -24.92010 | -53.52574 | 6573 ft | 160 kts | 338° |
| 2026-05-06 15:58 | -24.90970 | -53.53019 | 6569 ft | 160 kts | 338° |
| 2026-05-06 15:58 | -24.89927 | -53.53465 | 6570 ft | 161 kts | 338° |
| 2026-05-06 15:58 | -24.88891 | -53.53907 | 6569 ft | 162 kts | 338° |
| 2026-05-06 15:59 | -24.87849 | -53.54352 | 6574 ft | 160 kts | 338° |
| 2026-05-06 15:59 | -24.86813 | -53.54796 | 6570 ft | 160 kts | 338° |
| 2026-05-06 15:59 | -24.85778 | -53.55239 | 6568 ft | 159 kts | 338° |
| 2026-05-06 15:59 | -24.84746 | -53.55682 | 6567 ft | 158 kts | 338° |
| 2026-05-06 16:00 | -24.83719 | -53.56121 | 6567 ft | 158 kts | 338° |
| 2026-05-06 16:00 | -24.82696 | -53.56561 | 6567 ft | 158 kts | 338° |
| 2026-05-06 16:00 | -24.81672 | -53.57000 | 6567 ft | 158 kts | 338° |
| 2026-05-06 16:00 | -24.80641 | -53.57440 | 6572 ft | 159 kts | 338° |
| 2026-05-06 16:01 | -24.79604 | -53.57886 | 6569 ft | 159 kts | 338° |
| 2026-05-06 16:01 | -24.78575 | -53.58331 | 6572 ft | 159 kts | 338° |
| 2026-05-06 16:01 | -24.77540 | -53.58778 | 6570 ft | 159 kts | 338° |
| 2026-05-06 16:01 | -24.76526 | -53.59217 | 6569 ft | 159 kts | 338° |
| 2026-05-06 16:02 | -24.75497 | -53.59661 | 6567 ft | 159 kts | 338° |
| 2026-05-06 16:02 | -24.74471 | -53.60106 | 6569 ft | 159 kts | 338° |
| 2026-05-06 16:02 | -24.73438 | -53.60552 | 6574 ft | 160 kts | 338° |
| 2026-05-06 16:02 | -24.72397 | -53.61001 | 6568 ft | 161 kts | 338° |
| 2026-05-06 16:03 | -24.71357 | -53.61454 | 6573 ft | 160 kts | 338° |
| 2026-05-06 16:03 | -24.70321 | -53.61903 | 6569 ft | 160 kts | 338° |
| 2026-05-06 16:03 | -24.69292 | -53.62352 | 6573 ft | 159 kts | 338° |
| 2026-05-06 16:03 | -24.68255 | -53.62803 | 6570 ft | 160 kts | 338° |
| 2026-05-06 16:04 | -24.67220 | -53.63255 | 6574 ft | 160 kts | 338° |
| 2026-05-06 16:04 | -24.66183 | -53.63713 | 6574 ft | 160 kts | 338° |
| 2026-05-06 16:04 | -24.65230 | -53.64311 | 6568 ft | 160 kts | 325° |
| 2026-05-06 16:04 | -24.64309 | -53.64998 | 6570 ft | 160 kts | 326° |
| 2026-05-06 16:05 | -24.63382 | -53.65683 | 6564 ft | 160 kts | 326° |
| 2026-05-06 16:05 | -24.62459 | -53.66362 | 6565 ft | 159 kts | 325° |
| 2026-05-06 16:05 | -24.61544 | -53.67036 | 6562 ft | 159 kts | 325° |
| 2026-05-06 16:05 | -24.60629 | -53.67710 | 6564 ft | 158 kts | 325° |
| 2026-05-06 16:06 | -24.60018 | -53.68160 | 6562 ft | 159 kts | 326° |
| 2026-05-06 16:06 | -24.58790 | -53.69067 | 6563 ft | 158 kts | 325° |
| 2026-05-06 16:06 | -24.57875 | -53.69743 | 6569 ft | 158 kts | 325° |
| 2026-05-06 16:06 | -24.56958 | -53.70421 | 6562 ft | 160 kts | 326° |
| 2026-05-06 16:07 | -24.56044 | -53.71094 | 6569 ft | 160 kts | 325° |
| 2026-05-06 16:07 | -24.55123 | -53.71779 | 6566 ft | 159 kts | 325° |
| 2026-05-06 16:07 | -24.54502 | -53.72238 | 6566 ft | 160 kts | 326° |
| 2026-05-06 16:07 | -24.53590 | -53.72908 | 6563 ft | 160 kts | 325° |
| 2026-05-06 16:08 | -24.52361 | -53.73822 | 6563 ft | 159 kts | 325° |
| 2026-05-06 16:08 | -24.51755 | -53.74274 | 6567 ft | 159 kts | 325° |
| 2026-05-06 16:08 | -24.50527 | -53.75187 | 6569 ft | 159 kts | 325° |
| 2026-05-06 16:08 | -24.49608 | -53.75870 | 6569 ft | 160 kts | 325° |
| 2026-05-06 16:09 | -24.48691 | -53.76558 | 6569 ft | 160 kts | 325° |
| 2026-05-06 16:09 | -24.47766 | -53.77242 | 6570 ft | 160 kts | 325° |
| 2026-05-06 16:09 | -24.46848 | -53.77927 | 6570 ft | 160 kts | 325° |
| 2026-05-06 16:09 | -24.45936 | -53.78608 | 6570 ft | 160 kts | 325° |
| 2026-05-06 16:10 | -24.45005 | -53.79300 | 6563 ft | 160 kts | 325° |
| 2026-05-06 16:10 | -24.44098 | -53.79977 | 6567 ft | 160 kts | 325° |
| 2026-05-06 16:10 | -24.43179 | -53.80665 | 6564 ft | 159 kts | 325° |
| 2026-05-06 16:10 | -24.42259 | -53.81354 | 6564 ft | 160 kts | 325° |
| 2026-05-06 16:11 | -24.41341 | -53.82043 | 6570 ft | 159 kts | 325° |
| 2026-05-06 16:11 | -24.40426 | -53.82727 | 6568 ft | 159 kts | 325° |
| 2026-05-06 16:11 | -24.39511 | -53.83414 | 6567 ft | 158 kts | 325° |
| 2026-05-06 16:11 | -24.38598 | -53.84099 | 6568 ft | 159 kts | 325° |
| 2026-05-06 16:12 | -24.37680 | -53.84786 | 6564 ft | 159 kts | 325° |
| 2026-05-06 16:12 | -24.36770 | -53.85471 | 6568 ft | 158 kts | 324° |
| 2026-05-06 16:12 | -24.35860 | -53.86154 | 6562 ft | 159 kts | 325° |
| 2026-05-06 16:12 | -24.34951 | -53.86841 | 6563 ft | 158 kts | 324° |
| 2026-05-06 16:13 | -24.34045 | -53.87523 | 6567 ft | 159 kts | 324° |
| 2026-05-06 16:13 | -24.33129 | -53.88212 | 6556 ft | 160 kts | 325° |
| 2026-05-06 16:13 | -24.32301 | -53.89025 | 6311 ft | 161 kts | 315° |
| 2026-05-06 16:13 | -24.31592 | -53.89959 | 6456 ft | 162 kts | 311° |
| 2026-05-06 16:14 | -24.30829 | -53.90875 | 6404 ft | 163 kts | 311° |
| 2026-05-06 16:14 | -24.30068 | -53.91795 | 6355 ft | 163 kts | 311° |
| 2026-05-06 16:14 | -24.29306 | -53.92713 | 6304 ft | 163 kts | 312° |
| 2026-05-06 16:14 | -24.28542 | -53.93630 | 6254 ft | 163 kts | 311° |
| 2026-05-06 16:15 | -24.28028 | -53.94251 | 6220 ft | 162 kts | 311° |
| 2026-05-06 16:15 | -24.27275 | -53.95160 | 6176 ft | 164 kts | 311° |
| 2026-05-06 16:15 | -24.26254 | -53.96402 | 6105 ft | 163 kts | 311° |
| 2026-05-06 16:15 | -24.25749 | -53.97012 | 6076 ft | 164 kts | 311° |
| 2026-05-06 16:16 | -24.24984 | -53.97940 | 6023 ft | 164 kts | 311° |
| 2026-05-06 16:16 | -24.24221 | -53.98871 | 5979 ft | 165 kts | 311° |
| 2026-05-06 16:16 | -24.23451 | -53.99802 | 5929 ft | 164 kts | 311° |
| 2026-05-06 16:16 | -24.22681 | -54.00736 | 5870 ft | 165 kts | 311° |
| 2026-05-06 16:17 | -24.21906 | -54.01678 | 5729 ft | 169 kts | 311° |
| 2026-05-06 16:17 | -24.21126 | -54.02628 | 5584 ft | 170 kts | 311° |
| 2026-05-06 16:17 | -24.20333 | -54.03598 | 5423 ft | 170 kts | 311° |
| 2026-05-06 16:17 | -24.19536 | -54.04565 | 5286 ft | 171 kts | 311° |
| 2026-05-06 16:18 | -24.18736 | -54.05535 | 5135 ft | 172 kts | 311° |
| 2026-05-06 16:18 | -24.17977 | -54.06552 | 4988 ft | 174 kts | 307° |
| 2026-05-06 16:18 | -24.17250 | -54.07605 | 4838 ft | 173 kts | 306° |